| time (UTC) | temp F | wind direction | speed MPH | gust MPH | rain 1hr in | rain 24hr in | rain mn in | humidity % | barometer mb |
| 20260510203259 | 46 | 0 | 0.0 | 0.0 | 5.64 | 0.00 | 0.00 | 51 | 1028.1 |
| 20260510202759 | 47 | 0 | 0.0 | 0.0 | 5.64 | 0.00 | 0.00 | 50 | 1028.2 |
| 20260510202259 | 45 | 0 | 0.0 | 0.0 | 5.64 | 0.00 | 0.00 | 52 | 1028.1 |
| 20260510201759 | 51 | 0 | 0.0 | 0.0 | 5.64 | 0.00 | 0.00 | 55 | 1028.2 |
| 20260510201259 | 49 | 0 | 0.0 | 0.0 | 5.64 | 0.00 | 0.00 | 52 | 1028.2 |
| 20260510200759 | 49 | 0 | 0.0 | 0.0 | 5.64 | 0.00 | 0.00 | 52 | 1028.1 |
| 20260510200259 | 49 | 0 | 0.0 | 0.0 | 5.64 | 0.00 | 0.00 | 52 | 1028.1 |
| 20260510195759 | 50 | 0 | 0.0 | 0.0 | 5.64 | 0.00 | 0.00 | 51 | 1028.3 |
| 20260510195301 | 50 | 0 | 0.0 | 0.0 | 5.64 | 0.00 | 0.00 | 55 | 1028.3 |
| 20260510194759 | 49 | 0 | 0.0 | 0.0 | 5.64 | 0.00 | 0.00 | 53 | 1028.3 |
| 20260510194259 | 50 | 0 | 0.0 | 0.0 | 5.64 | 0.00 | 0.00 | 50 | 1028.1 |
| 20260510193759 | 50 | 0 | 0.0 | 0.0 | 5.64 | 0.00 | 0.00 | 55 | 1028.2 |
| 20260510193300 | 47 | 0 | 0.0 | 0.0 | 5.64 | 0.00 | 0.00 | 55 | 1028.2 |
| 20260510192759 | 49 | 0 | 0.0 | 0.0 | 5.64 | 0.00 | 0.00 | 54 | 1028.3 |
| 20260510192259 | -6 | 0 | 0.0 | 0.0 | 5.64 | 0.00 | 0.00 | 58 | 1028.2 |
| 20260510191759 | 0 | 0 | 0.0 | 0.0 | 5.64 | 0.00 | 0.00 | 55 | 1028.0 |
| 20260510191259 | 48 | 0 | 0.0 | 0.0 | 5.64 | 0.00 | 0.00 | 53 | 1027.9 |
| 20260510190759 | 46 | 0 | 0.0 | 0.0 | 5.64 | 0.00 | 0.00 | 58 | 1028.0 |
| 20260510190259 | 49 | 0 | 0.0 | 0.0 | 5.64 | 0.00 | 0.00 | 57 | 1027.9 |
| 20260510185759 | 49 | 0 | 0.0 | 0.0 | 5.64 | 0.00 | 0.00 | 55 | 1027.6 |
| 20260510185259 | -8 | 359 | 0.0 | 3.0 | 5.64 | 0.00 | 0.00 | 59 | 1027.6 |
| 20260510184759 | -10 | 0 | 0.0 | 0.0 | 5.64 | 0.00 | 0.00 | 57 | 1027.7 |
| 20260510184713 | -8 | 359 | 1.0 | 4.0 | 5.64 | 0.00 | 0.00 | 57 | 1027.7 |
| 20260510184259 | -8 | 359 | 1.0 | 4.0 | 5.64 | 0.00 | 0.00 | 57 | 1027.7 |
| 20260510183759 | -5 | 0 | 0.0 | 0.0 | 5.64 | 0.00 | 0.00 | 56 | 1027.7 |
| 20260510183259 | 6 | 359 | 1.0 | 8.0 | 5.64 | 0.00 | 0.00 | 58 | 1027.7 |
| 20260510182801 | 51 | 0 | 0.0 | 0.0 | 5.64 | 0.00 | 0.00 | 58 | 1027.5 |
| 20260510182259 | 47 | 359 | 0.0 | 4.0 | 5.64 | 0.00 | 0.00 | 58 | 1027.5 |
| 20260510181759 | 50 | 0 | 0.0 | 0.0 | 5.64 | 0.00 | 0.00 | 59 | 1027.3 |
| 20260510181259 | 50 | 0 | 0.0 | 0.0 | 5.64 | 0.00 | 0.00 | 59 | 1027.4 |
| 20260510180759 | 54 | 359 | 1.0 | 3.0 | 5.64 | 0.00 | 0.00 | 59 | 1027.4 |
| 20260510180259 | 55 | 359 | 0.0 | 3.0 | 5.64 | 0.00 | 0.00 | 62 | 1027.4 |
| 20260510175759 | 56 | 0 | 0.0 | 0.0 | 5.64 | 0.00 | 0.00 | 60 | 1027.3 |
| 20260510175259 | 53 | 0 | 0.0 | 0.0 | 5.64 | 0.00 | 0.00 | 59 | 1027.3 |
| 20260510174759 | 54 | 0 | 0.0 | 0.0 | 5.64 | 0.00 | 0.00 | 62 | 1027.5 |
| 20260510174259 | 57 | 0 | 0.0 | 0.0 | 5.64 | 0.00 | 0.00 | 60 | 1027.5 |
| 20260510173759 | 58 | 0 | 0.0 | 0.0 | 5.64 | 0.00 | 0.00 | 63 | 1027.4 |
| 20260510173259 | 58 | 0 | 0.0 | 0.0 | 5.64 | 0.00 | 0.00 | 60 | 1027.4 |
| 20260510172759 | 57 | 0 | 0.0 | 0.0 | 5.64 | 0.00 | 0.00 | 63 | 1027.5 |
| 20260510171259 | 58 | 0 | 0.0 | 0.0 | 5.64 | 0.00 | 0.00 | 63 | 1027.5 |
| 20260510170759 | 58 | 0 | 0.0 | 0.0 | 5.64 | 0.00 | 0.00 | 61 | 1027.4 |
| 20260510170259 | 59 | 359 | 3.0 | 30.0 | 5.64 | 0.00 | 0.00 | 62 | 1027.2 |
| 20260510165759 | -40 | 326 | 1.0 | 4.0 | 5.64 | 0.00 | 0.00 | 62 | 1027.3 |
| 20260510165259 | 0 | 308 | 9.0 | 20.0 | 5.64 | 0.00 | 0.00 | 64 | 1027.2 |
| 20260510164759 | 0 | 359 | 1.0 | 5.0 | 5.64 | 0.00 | 0.00 | 61 | 1027.1 |
| 20260510164259 | 0 | 359 | 1.0 | 6.0 | 5.64 | 0.00 | 0.00 | 61 | 1027.0 |
| 20260510163759 | 0 | 297 | 13.0 | 17.0 | 5.64 | 0.00 | 0.00 | 60 | 1027.1 |
| 20260510163259 | 0 | 267 | 16.0 | 22.0 | 5.64 | 0.00 | 0.00 | 61 | 1027.0 |
| 20260510162759 | 0 | 0 | 0.0 | 0.0 | 5.64 | 0.00 | 0.00 | 62 | 1027.1 |
| 20260510162259 | 0 | 271 | 9.0 | 14.0 | 5.64 | 0.00 | 0.00 | 62 | 1027.0 |
| 20260510161759 | 53 | 294 | 18.0 | 23.0 | 5.64 | 0.00 | 0.00 | 62 | 1027.0 |
| 20260510161259 | 0 | 359 | 15.0 | 21.0 | 5.64 | 0.00 | 0.00 | 60 | 1027.0 |
| 20260510160759 | -55 | 291 | 13.0 | 18.0 | 5.64 | 0.00 | 0.00 | 65 | 1027.0 |
| 20260510160300 | -55 | 359 | 1.0 | 3.0 | 5.64 | 0.00 | 0.00 | 65 | 1026.9 |
| 20260510155800 | 0 | 0 | 0.0 | 0.0 | 5.64 | 0.00 | 0.00 | 64 | 1027.0 |
| 20260510155259 | 0 | 0 | 0.0 | 0.0 | 5.64 | 0.00 | 0.00 | 63 | 1026.9 |
| 20260510154759 | 0 | 0 | 0.0 | 0.0 | 5.64 | 0.00 | 0.00 | 61 | 1026.9 |
| 20260510154259 | 0 | 0 | 0.0 | 0.0 | 5.64 | 0.00 | 0.00 | 60 | 1026.8 |
| 20260510153759 | 0 | 333 | 0.0 | 3.0 | 5.64 | 0.00 | 0.00 | 63 | 1026.9 |
| 20260510153300 | 0 | 0 | 0.0 | 0.0 | 5.64 | 0.00 | 0.00 | 66 | 1026.8 |
| 20260510152759 | 0 | 0 | 0.0 | 0.0 | 5.64 | 0.00 | 0.00 | 66 | 1026.7 |
| 20260510152259 | 0 | 0 | 0.0 | 0.0 | 5.64 | 0.00 | 0.00 | 64 | 1026.7 |
| 20260510151759 | 0 | 335 | 0.0 | 3.0 | 5.64 | 0.00 | 0.00 | 68 | 1026.7 |
| 20260510151259 | -55 | 0 | 0.0 | 0.0 | 5.64 | 0.00 | 0.00 | 68 | 1026.7 |
| 20260510150759 | -55 | 0 | 0.0 | 0.0 | 5.64 | 0.00 | 0.00 | 63 | 1026.6 |
| 20260510150300 | 0 | 0 | 0.0 | 0.0 | 5.64 | 0.00 | 0.00 | 65 | 1026.4 |
| 20260510145759 | -47 | 290 | 14.0 | 19.0 | 5.64 | 0.00 | 0.00 | 65 | 1026.3 |
| 20260510145259 | 0 | 274 | 15.0 | 19.0 | 5.64 | 0.00 | 0.00 | 64 | 1026.3 |
| 20260510144801 | -55 | 277 | 3.0 | 19.0 | 5.64 | 0.00 | 0.00 | 65 | 1026.1 |
| 20260510144301 | 0 | 0 | 0.0 | 0.0 | 5.64 | 0.00 | 0.00 | 68 | 1026.2 |
| 20260510143801 | 0 | 326 | 0.0 | 3.0 | 5.64 | 0.00 | 0.00 | 68 | 1026.1 |
| 20260510143259 | -55 | 0 | 0.0 | 0.0 | 5.64 | 0.00 | 0.00 | 67 | 1026.1 |
| 20260510142759 | -55 | 0 | 0.0 | 0.0 | 5.64 | 0.00 | 0.00 | 68 | 1026.1 |
| 20260510142259 | -55 | 0 | 0.0 | 0.0 | 5.64 | 0.00 | 0.00 | 68 | 1026.1 |
| 20260510141800 | -55 | 0 | 0.0 | 0.0 | 5.64 | 0.00 | 0.00 | 68 | 1026.1 |
| 20260510141300 | 0 | 294 | 0.0 | 3.0 | 5.64 | 0.00 | 0.00 | 70 | 1026.1 |
| 20260510140759 | 0 | 294 | 1.0 | 6.0 | 5.64 | 0.00 | 0.00 | 69 | 1025.9 |
| 20260510140300 | 0 | 294 | 0.0 | 2.0 | 5.64 | 0.00 | 0.00 | 69 | 1026.0 |
| 20260510135800 | 0 | 0 | 0.0 | 0.0 | 5.64 | 0.00 | 0.00 | 69 | 1026.0 |
| 20260510135300 | 0 | 294 | 1.0 | 10.0 | 5.64 | 0.00 | 0.00 | 76 | 1026.1 |
| 20260510134800 | 0 | 0 | 0.0 | 0.0 | 5.64 | 0.00 | 0.00 | 72 | 1026.2 |
| 20260510134300 | 0 | 0 | 0.0 | 0.0 | 5.64 | 0.00 | 0.00 | 70 | 1026.1 |
| 20260510133800 | 0 | 0 | 0.0 | 0.0 | 5.64 | 0.00 | 0.00 | 73 | 1026.1 |
| 20260510133300 | 0 | 0 | 0.0 | 0.0 | 5.64 | 0.00 | 0.00 | 73 | 1026.1 |
| 20260510132800 | 0 | 0 | 0.0 | 0.0 | 5.64 | 0.00 | 0.00 | 75 | 1026.1 |
| 20260510132300 | 0 | 0 | 0.0 | 0.0 | 5.64 | 0.00 | 0.00 | 75 | 1026.1 |
| 20260510131800 | 0 | 0 | 0.0 | 0.0 | 5.64 | 0.00 | 0.00 | 76 | 1026.0 |
| 20260510131300 | 0 | 291 | 0.0 | 1.0 | 5.64 | 0.00 | 0.00 | 74 | 1026.0 |
| 20260510130800 | 0 | 291 | 1.0 | 4.0 | 5.64 | 0.00 | 0.00 | 77 | 1026.1 |
| 20260510130300 | 0 | 0 | 0.0 | 0.0 | 5.64 | 0.00 | 0.00 | 77 | 1026.0 |
| 20260510125800 | 0 | 0 | 0.0 | 0.0 | 5.64 | 0.00 | 0.00 | 78 | 1026.0 |
| 20260510125300 | 0 | 0 | 0.0 | 0.0 | 5.64 | 0.00 | 0.00 | 80 | 1025.9 |
| 20260510124800 | -53 | 0 | 0.0 | 0.0 | 5.64 | 0.00 | 0.00 | 80 | 1025.9 |
| 20260510124300 | -55 | 0 | 0.0 | 0.0 | 5.64 | 0.00 | 0.00 | 81 | 1025.8 |
| 20260510123800 | -55 | 0 | 0.0 | 0.0 | 5.64 | 0.00 | 0.00 | 80 | 1025.7 |
| 20260510123300 | 0 | 359 | 0.0 | 2.0 | 5.64 | 0.00 | 0.00 | 80 | 1025.8 |
| 20260510122800 | 0 | 0 | 0.0 | 0.0 | 5.64 | 0.00 | 0.00 | 82 | 1025.8 |
| 20260510122300 | 0 | 0 | 0.0 | 0.0 | 5.64 | 0.00 | 0.00 | 83 | 1025.7 |
| 20260510121800 | 0 | 0 | 0.0 | 0.0 | 5.64 | 0.00 | 0.00 | 84 | 1025.6 |
| 20260510121300 | 0 | 359 | 1.0 | 6.0 | 5.64 | 0.00 | 0.00 | 83 | 1025.5 |
| 20260510120800 | 0 | 0 | 0.0 | 0.0 | 5.64 | 0.00 | 0.00 | 83 | 1025.5 |
| 20260510120300 | 0 | 0 | 0.0 | 0.0 | 5.64 | 0.00 | 0.00 | 85 | 1025.4 |
| 20260510115800 | 0 | 359 | 0.0 | 1.0 | 5.64 | 0.00 | 0.00 | 85 | 1025.3 |
| 20260510115300 | 0 | 0 | 0.0 | 0.0 | 5.64 | 0.00 | 0.00 | 86 | 1025.0 |
| 20260510114800 | 0 | 0 | 0.0 | 0.0 | 5.64 | 0.00 | 0.00 | 86 | 1025.2 |
| 20260510114300 | 0 | 0 | 0.0 | 0.0 | 5.64 | 0.00 | 0.00 | 85 | 1024.9 |
| 20260510113801 | 0 | 359 | 0.0 | 3.0 | 5.64 | 0.00 | 0.00 | 87 | 1024.8 |
| 20260510113300 | 0 | 0 | 0.0 | 0.0 | 5.64 | 0.00 | 0.00 | 88 | 1024.8 |
| 20260510112802 | 0 | 0 | 0.0 | 0.0 | 5.64 | 0.00 | 0.00 | 88 | 1024.7 |
| 20260510112300 | 0 | 0 | 0.0 | 0.0 | 5.64 | 0.00 | 0.00 | 88 | 1024.6 |
| 20260510111800 | 0 | 0 | 0.0 | 0.0 | 5.64 | 0.00 | 0.00 | 89 | 1024.5 |
| 20260510111301 | 0 | 0 | 0.0 | 0.0 | 5.64 | 0.00 | 0.00 | 89 | 1024.5 |
| 20260510110800 | 0 | 357 | 0.0 | 3.0 | 5.64 | 0.00 | 0.00 | 89 | 1024.5 |
| 20260510110300 | 0 | 0 | 0.0 | 0.0 | 5.64 | 0.00 | 0.00 | 89 | 1024.3 |
| 20260510105800 | 0 | 0 | 0.0 | 0.0 | 5.64 | 0.00 | 0.00 | 89 | 1024.2 |
| 20260510105300 | 0 | 0 | 0.0 | 0.0 | 5.64 | 0.00 | 0.00 | 89 | 1024.2 |
| 20260510104800 | 0 | 0 | 0.0 | 0.0 | 5.64 | 0.00 | 0.00 | 89 | 1024.1 |
| 20260510104300 | 0 | 0 | 0.0 | 0.0 | 5.64 | 0.00 | 0.00 | 89 | 1024.0 |
| 20260510103800 | 0 | 0 | 0.0 | 0.0 | 5.64 | 0.00 | 0.00 | 87 | 1023.9 |
| 20260510103300 | 0 | 0 | 0.0 | 0.0 | 5.64 | 0.00 | 0.00 | 88 | 1023.7 |
| 20260510102800 | 0 | 0 | 0.0 | 0.0 | 5.64 | 0.00 | 0.00 | 88 | 1023.6 |
| 20260510102300 | 0 | 0 | 0.0 | 0.0 | 5.64 | 0.00 | 0.00 | 88 | 1023.5 |
| 20260510101800 | 0 | 0 | 0.0 | 0.0 | 5.64 | 0.00 | 0.00 | 88 | 1023.5 |
| 20260510101300 | 0 | 0 | 0.0 | 0.0 | 5.64 | 0.00 | 0.00 | 88 | 1023.4 |
| 20260510100800 | 0 | 0 | 0.0 | 0.0 | 5.64 | 0.00 | 0.00 | 88 | 1023.1 |
| 20260510100300 | 0 | 0 | 0.0 | 0.0 | 5.64 | 0.00 | 0.00 | 88 | 1023.0 |
| 20260510095800 | 0 | 0 | 0.0 | 0.0 | 5.64 | 0.00 | 0.00 | 88 | 1022.9 |
| 20260510095300 | 0 | 0 | 0.0 | 0.0 | 5.64 | 0.00 | 0.00 | 88 | 1022.8 |
| 20260510094801 | 0 | 0 | 0.0 | 0.0 | 5.64 | 0.00 | 0.00 | 89 | 1022.6 |
| 20260510094635 | 0 | 0 | 0.0 | 0.0 | 5.64 | 0.00 | 0.00 | 90 | 1022.5 |
| 20260510094510 | 0 | 0 | 0.0 | 0.0 | 5.64 | 0.00 | 0.00 | 90 | 1022.5 |
| 20260510094438 | 0 | 0 | 0.0 | 0.0 | 5.64 | 0.00 | 0.00 | 90 | 1022.5 |
| 20260510094300 | 0 | 0 | 0.0 | 0.0 | 5.64 | 0.00 | 0.00 | 90 | 1022.5 |
| 20260510093800 | 0 | 0 | 0.0 | 0.0 | 5.64 | 0.00 | 0.00 | 90 | 1022.2 |
| 20260510093301 | 0 | 0 | 0.0 | 0.0 | 5.64 | 0.00 | 0.00 | 89 | 1022.1 |
| 20260510092800 | 0 | 0 | 0.0 | 0.0 | 5.64 | 0.00 | 0.00 | 88 | 1022.0 |
| 20260510092300 | 0 | 0 | 0.0 | 0.0 | 5.64 | 0.00 | 0.00 | 88 | 1021.9 |
| 20260510091800 | 0 | 0 | 0.0 | 0.0 | 5.64 | 0.00 | 0.00 | 89 | 1021.8 |
| 20260510091301 | 0 | 0 | 0.0 | 0.0 | 5.64 | 0.00 | 0.00 | 88 | 1021.7 |
| 20260510090800 | 0 | 0 | 0.0 | 0.0 | 5.64 | 0.00 | 0.00 | 88 | 1021.5 |
| 20260510090300 | 0 | 0 | 0.0 | 0.0 | 5.64 | 0.00 | 0.00 | 89 | 1021.4 |
| 20260510085800 | 0 | 0 | 0.0 | 0.0 | 5.64 | 0.00 | 0.00 | 88 | 1021.3 |
| 20260510085300 | 0 | 0 | 0.0 | 0.0 | 5.64 | 0.00 | 0.00 | 87 | 1021.2 |
| 20260510084801 | 0 | 0 | 0.0 | 0.0 | 5.64 | 0.00 | 0.00 | 87 | 1021.1 |
| 20260510084301 | 0 | 0 | 0.0 | 0.0 | 5.64 | 0.00 | 0.00 | 86 | 1021.1 |
| 20260510083800 | 0 | 0 | 0.0 | 0.0 | 5.64 | 0.00 | 0.00 | 84 | 1021.0 |
| 20260510083301 | 0 | 0 | 0.0 | 0.0 | 5.64 | 0.00 | 0.00 | 84 | 1021.0 |
| 20260510082800 | 0 | 0 | 0.0 | 0.0 | 5.64 | 0.00 | 0.00 | 84 | 1021.0 |
| 20260510082300 | 0 | 0 | 0.0 | 0.0 | 5.64 | 0.00 | 0.00 | 84 | 1020.9 |
| 20260510081800 | 0 | 0 | 0.0 | 0.0 | 5.64 | 0.00 | 0.00 | 84 | 1021.0 |
| 20260510081300 | 0 | 0 | 0.0 | 0.0 | 5.64 | 0.00 | 0.00 | 84 | 1020.9 |
| 20260510080800 | 0 | 0 | 0.0 | 0.0 | 5.64 | 0.00 | 0.00 | 83 | 1020.9 |
| 20260510080301 | 0 | 0 | 0.0 | 0.0 | 5.64 | 0.00 | 0.00 | 84 | 1020.9 |
| 20260510075800 | 0 | 0 | 0.0 | 0.0 | 5.64 | 0.00 | 0.00 | 84 | 1020.8 |
| 20260510075300 | 0 | 0 | 0.0 | 0.0 | 5.64 | 0.00 | 0.00 | 84 | 1020.7 |
| 20260510074800 | 0 | 0 | 0.0 | 0.0 | 5.64 | 0.00 | 0.00 | 84 | 1020.7 |
| 20260510074300 | 0 | 0 | 0.0 | 0.0 | 5.64 | 0.00 | 0.00 | 84 | 1020.6 |
| 20260510073801 | 0 | 0 | 0.0 | 0.0 | 5.64 | 0.00 | 0.00 | 83 | 1020.6 |
| 20260510073300 | 0 | 0 | 0.0 | 0.0 | 5.64 | 0.00 | 0.00 | 83 | 1020.5 |
| 20260510072800 | 0 | 0 | 0.0 | 0.0 | 5.64 | 0.00 | 0.00 | 83 | 1020.5 |
| 20260510072300 | 0 | 0 | 0.0 | 0.0 | 5.64 | 0.00 | 0.00 | 83 | 1020.4 |
| 20260510071800 | 0 | 0 | 0.0 | 0.0 | 5.64 | 0.00 | 0.00 | 83 | 1020.5 |
| 20260510071301 | 0 | 0 | 0.0 | 0.0 | 5.64 | 0.00 | 0.00 | 83 | 1020.5 |
| 20260510070801 | 0 | 0 | 0.0 | 0.0 | 5.64 | 0.00 | 0.00 | 82 | 1020.4 |
| 20260510070301 | 0 | 0 | 0.0 | 0.0 | 5.64 | 0.00 | 0.00 | 82 | 1020.4 |
| 20260510065800 | 0 | 0 | 0.0 | 0.0 | 5.64 | 0.00 | 0.00 | 82 | 1020.4 |
| 20260510065301 | 0 | 0 | 0.0 | 0.0 | 5.64 | 0.00 | 0.00 | 82 | 1020.4 |
| 20260510064801 | 0 | 0 | 0.0 | 0.0 | 5.64 | 0.00 | 0.00 | 82 | 1020.3 |
| 20260510064650 | 0 | 0 | 0.0 | 0.0 | 5.64 | 0.00 | 0.00 | 82 | 1020.2 |
| 20260510064510 | 0 | 0 | 0.0 | 0.0 | 5.64 | 0.00 | 0.00 | 82 | 1020.2 |
| 20260510064301 | 0 | 0 | 0.0 | 0.0 | 5.64 | 0.00 | 0.00 | 82 | 1020.2 |
| 20260510063801 | 0 | 0 | 0.0 | 0.0 | 5.64 | 0.00 | 0.00 | 81 | 1020.2 |
| 20260510063301 | 0 | 0 | 0.0 | 0.0 | 5.64 | 0.00 | 0.00 | 81 | 1020.2 |
| 20260510062803 | 0 | 0 | 0.0 | 0.0 | 5.64 | 0.00 | 0.00 | 81 | 1020.2 |
| 20260510062301 | 0 | 0 | 0.0 | 0.0 | 5.64 | 0.00 | 0.00 | 80 | 1020.1 |
| 20260510061801 | 0 | 0 | 0.0 | 0.0 | 5.64 | 0.00 | 0.00 | 80 | 1020.0 |
| 20260510061644 | 0 | 0 | 0.0 | 0.0 | 5.64 | 0.00 | 0.00 | 79 | 1019.9 |
| 20260510061509 | 0 | 0 | 0.0 | 0.0 | 5.64 | 0.00 | 0.00 | 79 | 1019.9 |
| 20260510061301 | 0 | 0 | 0.0 | 0.0 | 5.64 | 0.00 | 0.00 | 79 | 1019.9 |
| 20260510060802 | 0 | 0 | 0.0 | 0.0 | 5.64 | 0.00 | 0.00 | 78 | 1019.8 |
| 20260510060301 | 0 | 0 | 0.0 | 0.0 | 5.64 | 0.00 | 0.00 | 79 | 1019.8 |
| 20260510055801 | 0 | 0 | 0.0 | 0.0 | 5.64 | 0.00 | 0.00 | 79 | 1019.8 |
| 20260510055301 | 0 | 0 | 0.0 | 0.0 | 5.64 | 0.00 | 0.00 | 80 | 1019.6 |
| 20260510054801 | 0 | 0 | 0.0 | 0.0 | 5.64 | 0.00 | 0.00 | 79 | 1019.6 |
| 20260510054301 | 0 | 0 | 0.0 | 0.0 | 5.64 | 0.00 | 0.00 | 80 | 1019.4 |
| 20260510053801 | 0 | 0 | 0.0 | 0.0 | 5.64 | 0.00 | 0.00 | 79 | 1019.3 |
| 20260510053301 | -55 | 0 | 0.0 | 0.0 | 5.64 | 0.00 | 0.00 | 78 | 1019.2 |
| 20260510052801 | -55 | 0 | 0.0 | 0.0 | 5.64 | 0.00 | 0.00 | 78 | 1019.2 |
| 20260510052301 | 0 | 0 | 0.0 | 0.0 | 5.64 | 0.00 | 0.00 | 76 | 1019.2 |
| 20260510051837 | 0 | 0 | 0.0 | 0.0 | 5.64 | 0.00 | 0.00 | 76 | 1019.2 |
| 20260510051801 | 0 | 0 | 0.0 | 0.0 | 5.64 | 0.00 | 0.00 | 76 | 1019.2 |
| 20260510051301 | 0 | 0 | 0.0 | 0.0 | 5.64 | 0.00 | 0.00 | 75 | 1019.0 |
| 20260510050801 | -55 | 0 | 0.0 | 0.0 | 5.64 | 0.00 | 0.00 | 74 | 1018.9 |
| 20260510050301 | -50 | 0 | 0.0 | 0.0 | 5.64 | 0.00 | 0.00 | 74 | 1018.6 |
| 20260510045801 | -50 | 0 | 0.0 | 0.0 | 5.64 | 0.00 | 0.00 | 73 | 1018.6 |
| 20260510045301 | -52 | 0 | 0.0 | 0.0 | 5.64 | 0.00 | 0.00 | 72 | 1018.3 |
| 20260510044801 | -49 | 0 | 0.0 | 0.0 | 5.64 | 0.00 | 0.00 | 71 | 1018.2 |
| 20260510044301 | -33 | 0 | 0.0 | 0.0 | 5.64 | 0.00 | 0.00 | 72 | 1018.2 |
| 20260510043801 | -27 | 0 | 0.0 | 0.0 | 5.64 | 0.00 | 0.00 | 71 | 1018.3 |
| 20260510043301 | -24 | 0 | 0.0 | 0.0 | 5.64 | 0.00 | 0.00 | 72 | 1018.3 |
| 20260510042801 | -35 | 356 | 0.0 | 3.0 | 5.64 | 0.00 | 0.00 | 72 | 1018.1 |
| 20260510042301 | -35 | 0 | 0.0 | 0.0 | 5.64 | 0.00 | 0.00 | 74 | 1018.0 |
| 20260510041801 | -36 | 0 | 0.0 | 0.0 | 5.64 | 0.00 | 0.00 | 74 | 1018.0 |
| 20260510041302 | -33 | 0 | 0.0 | 0.0 | 5.64 | 0.00 | 0.00 | 74 | 1017.7 |
| 20260510040803 | -36 | 0 | 0.0 | 0.0 | 5.64 | 0.00 | 0.00 | 74 | 1018.2 |
| 20260510040301 | -31 | 0 | 0.0 | 0.0 | 5.64 | 0.00 | 0.00 | 74 | 1018.2 |
| 20260510035801 | -34 | 0 | 0.0 | 0.0 | 5.64 | 0.00 | 0.00 | 74 | 1018.1 |
| 20260510035305 | -31 | 0 | 0.0 | 0.0 | 5.64 | 0.00 | 0.00 | 75 | 1018.1 |
| 20260510034801 | -33 | 0 | 0.0 | 0.0 | 5.64 | 0.00 | 0.00 | 74 | 1017.7 |
| 20260510034303 | -34 | 0 | 0.0 | 0.0 | 5.64 | 0.00 | 0.00 | 75 | 1017.6 |
| 20260510033801 | -36 | 0 | 0.0 | 0.0 | 5.64 | 0.00 | 0.00 | 74 | 1017.6 |
| 20260510033301 | -36 | 0 | 0.0 | 0.0 | 5.64 | 0.00 | 0.00 | 74 | 1017.8 |
| 20260510032802 | -35 | 0 | 0.0 | 0.0 | 5.64 | 0.00 | 0.00 | 74 | 1017.5 |
| 20260510032301 | -34 | 0 | 0.0 | 0.0 | 5.64 | 0.00 | 0.00 | 72 | 1017.5 |
| 20260510031801 | -29 | 0 | 0.0 | 0.0 | 5.64 | 0.00 | 0.00 | 72 | 1017.5 |
| 20260510031504 | -31 | 0 | 0.0 | 0.0 | 5.64 | 0.00 | 0.00 | 71 | 1017.4 |
| 20260510031301 | -31 | 0 | 0.0 | 0.0 | 5.64 | 0.00 | 0.00 | 71 | 1017.4 |
| 20260510030801 | -31 | 0 | 0.0 | 0.0 | 5.64 | 0.00 | 0.00 | 71 | 1017.3 |
| 20260510030301 | -22 | 0 | 0.0 | 0.0 | 5.64 | 0.00 | 0.00 | 70 | 1017.2 |
| 20260510025801 | -25 | 0 | 0.0 | 0.0 | 5.64 | 0.00 | 0.00 | 69 | 1016.8 |
| 20260510025301 | -17 | 0 | 0.0 | 0.0 | 5.64 | 0.00 | 0.00 | 70 | 1016.7 |
| 20260510024801 | -14 | 0 | 0.0 | 0.0 | 5.64 | 0.00 | 0.00 | 69 | 1016.5 |
| 20260510024301 | -13 | 0 | 0.0 | 0.0 | 5.64 | 0.00 | 0.00 | 69 | 1016.4 |
| 20260510023802 | 58 | 0 | 0.0 | 0.0 | 5.64 | 0.00 | 0.00 | 72 | 1016.5 |
| 20260510023303 | -23 | 0 | 0.0 | 0.0 | 5.64 | 0.00 | 0.00 | 73 | 1016.4 |
| 20260510022801 | -36 | 0 | 0.0 | 0.0 | 5.64 | 0.00 | 0.00 | 72 | 1016.4 |
| 20260510022306 | -28 | 0 | 0.0 | 0.0 | 5.64 | 0.00 | 0.00 | 69 | 1016.2 |
| 20260510021802 | -28 | 0 | 0.0 | 0.0 | 5.64 | 0.00 | 0.00 | 73 | 1015.9 |
| 20260510021302 | -30 | 0 | 0.0 | 0.0 | 5.64 | 0.00 | 0.00 | 75 | 1015.6 |
| 20260510020801 | -34 | 0 | 0.0 | 0.0 | 5.64 | 0.00 | 0.00 | 79 | 1015.6 |
| 20260510020301 | -25 | 0 | 0.0 | 0.0 | 5.64 | 0.00 | 0.00 | 79 | 1015.8 |
| 20260510015801 | -28 | 0 | 0.0 | 0.0 | 5.64 | 0.00 | 0.00 | 79 | 1015.9 |
| 20260510015301 | -28 | 0 | 0.0 | 0.0 | 5.64 | 0.00 | 0.00 | 80 | 1015.7 |
| 20260510014801 | -20 | 0 | 0.0 | 0.0 | 5.64 | 0.00 | 0.00 | 80 | 1015.7 |
| 20260510014301 | -23 | 0 | 0.0 | 0.0 | 5.64 | 0.00 | 0.00 | 81 | 1015.7 |
| 20260510013801 | -33 | 347 | 0.0 | 2.0 | 5.64 | 0.00 | 0.00 | 79 | 1015.4 |
| 20260510013301 | -17 | 359 | 0.0 | 3.0 | 5.64 | 0.00 | 0.00 | 77 | 1015.2 |
| 20260510012801 | -20 | 290 | 1.0 | 3.0 | 5.64 | 0.00 | 0.00 | 75 | 1015.0 |
| 20260510012306 | -32 | 290 | 1.0 | 6.0 | 5.64 | 0.00 | 0.00 | 74 | 1014.8 |
| 20260510011801 | -19 | 0 | 0.0 | 0.0 | 5.64 | 0.00 | 0.00 | 74 | 1014.8 |
| 20260510011302 | -28 | 0 | 0.0 | 0.0 | 5.64 | 0.00 | 0.00 | 78 | 1014.7 |
| 20260510010801 | -19 | 0 | 0.0 | 0.0 | 5.64 | 0.00 | 0.00 | 86 | 1014.5 |
| 20260510010302 | -24 | 0 | 0.0 | 0.0 | 5.64 | 0.00 | 0.00 | 89 | 1014.4 |
| 20260510005801 | -29 | 0 | 0.0 | 0.0 | 5.64 | 0.00 | 0.00 | 90 | 1014.2 |
| 20260510005301 | -28 | 0 | 0.0 | 0.0 | 5.64 | 0.00 | 0.00 | 90 | 1014.0 |
| 20260510004803 | -23 | 0 | 0.0 | 0.0 | 5.64 | 0.00 | 0.00 | 90 | 1013.8 |
| 20260510004524 | -20 | 0 | 0.0 | 0.0 | 5.64 | 0.00 | 0.00 | 90 | 1013.8 |
| 20260510004301 | -20 | 0 | 0.0 | 0.0 | 5.64 | 0.00 | 0.00 | 90 | 1013.8 |
| 20260510003801 | -14 | 0 | 0.0 | 0.0 | 5.64 | 0.00 | 0.00 | 89 | 1013.6 |
| 20260510003301 | -16 | 0 | 0.0 | 0.0 | 5.64 | 0.00 | 0.00 | 90 | 1013.4 |
| 20260510002802 | -16 | 0 | 0.0 | 0.0 | 5.64 | 0.00 | 0.00 | 90 | 1013.4 |
| 20260510002301 | -11 | 0 | 0.0 | 0.0 | 5.64 | 0.00 | 0.00 | 90 | 1013.5 |
| 20260510001801 | -20 | 0 | 0.0 | 0.0 | 5.64 | 0.00 | 0.00 | 90 | 1013.4 |
| 20260510001301 | -14 | 0 | 0.0 | 0.0 | 5.64 | 0.00 | 0.00 | 90 | 1013.4 |
| 20260510000801 | -15 | 0 | 0.0 | 0.0 | 5.64 | 0.00 | 0.00 | 89 | 1013.3 |
| 20260510000304 | -1 | 0 | 0.0 | 0.0 | 5.64 | 0.00 | 0.00 | 89 | 1013.2 |
| 20260509235801 | -8 | 0 | 0.0 | 0.0 | 5.64 | 0.00 | 0.00 | 90 | 1013.2 |
| 20260509235306 | -4 | 0 | 0.0 | 0.0 | 5.64 | 0.00 | 0.00 | 89 | 1013.2 |
| 20260509234801 | -14 | 0 | 0.0 | 0.0 | 5.64 | 0.00 | 0.00 | 89 | 1013.1 |
| 20260509234302 | -15 | 0 | 0.0 | 0.0 | 5.64 | 0.00 | 0.00 | 90 | 1013.0 |
| 20260509233801 | -15 | 0 | 0.0 | 0.0 | 5.64 | 0.00 | 0.00 | 89 | 1012.8 |
| 20260509233302 | -15 | 0 | 0.0 | 0.0 | 5.64 | 0.00 | 0.00 | 88 | 1012.9 |
| 20260509232802 | -16 | 0 | 0.0 | 0.0 | 5.64 | 0.00 | 0.00 | 87 | 1012.7 |
| 20260509232305 | -16 | 0 | 0.0 | 0.0 | 5.64 | 0.00 | 0.00 | 87 | 1012.7 |
| 20260509231802 | -10 | 0 | 0.0 | 0.0 | 5.64 | 0.00 | 0.00 | 87 | 1012.7 |
| 20260509231333 | -13 | 0 | 0.0 | 0.0 | 5.64 | 0.00 | 0.00 | 87 | 1012.6 |
| 20260509231302 | -13 | 0 | 0.0 | 0.0 | 5.64 | 0.00 | 0.00 | 87 | 1012.6 |
| 20260509230802 | -13 | 0 | 0.0 | 0.0 | 5.64 | 0.00 | 0.00 | 88 | 1012.5 |
| 20260509230301 | -13 | 0 | 0.0 | 0.0 | 5.64 | 0.00 | 0.00 | 88 | 1012.4 |
| 20260509225802 | -6 | 0 | 0.0 | 0.0 | 5.64 | 0.00 | 0.00 | 89 | 1012.4 |
| 20260509225305 | -13 | 0 | 0.0 | 0.0 | 5.64 | 0.00 | 0.00 | 90 | 1012.2 |
| 20260509224802 | -17 | 0 | 0.0 | 0.0 | 5.64 | 0.00 | 0.00 | 89 | 1012.2 |
| 20260509224302 | -16 | 0 | 0.0 | 0.0 | 5.64 | 0.00 | 0.00 | 90 | 1012.2 |
| 20260509223802 | -15 | 0 | 0.0 | 0.0 | 5.64 | 0.00 | 0.00 | 91 | 1012.1 |
| 20260509223302 | -12 | 0 | 0.0 | 0.0 | 5.64 | 0.00 | 0.00 | 90 | 1012.0 |
| 20260509222802 | -17 | 0 | 0.0 | 0.0 | 5.64 | 0.00 | 0.00 | 89 | 1012.0 |
| 20260509222306 | -15 | 0 | 0.0 | 0.0 | 5.64 | 0.00 | 0.00 | 90 | 1012.0 |
| 20260509221802 | -14 | 0 | 0.0 | 0.0 | 5.64 | 0.00 | 0.00 | 90 | 1012.1 |
| 20260509221302 | -14 | 0 | 0.0 | 0.0 | 5.64 | 0.00 | 0.00 | 90 | 1012.1 |
| 20260509220802 | -16 | 0 | 0.0 | 0.0 | 5.64 | 0.00 | 0.00 | 88 | 1012.0 |
| 20260509220302 | -16 | 0 | 0.0 | 0.0 | 5.64 | 0.00 | 0.00 | 89 | 1011.9 |
| 20260509215802 | -16 | 0 | 0.0 | 0.0 | 5.64 | 0.00 | 0.00 | 89 | 1011.8 |
| 20260509215305 | -7 | 0 | 0.0 | 0.0 | 5.64 | 0.00 | 0.00 | 91 | 1011.8 |
| 20260509214803 | -6 | 290 | 1.0 | 7.0 | 5.64 | 0.00 | 0.00 | 91 | 1011.9 |
| 20260509214303 | -5 | 0 | 0.0 | 0.0 | 5.64 | 0.00 | 0.00 | 91 | 1012.0 |
| 20260509213802 | -6 | 0 | 0.0 | 0.0 | 5.64 | 0.00 | 0.00 | 90 | 1011.9 |
| 20260509213303 | -5 | 0 | 0.0 | 0.0 | 5.64 | 0.00 | 0.00 | 91 | 1011.9 |
| 20260509212802 | -5 | 0 | 0.0 | 0.0 | 5.64 | 0.00 | 0.00 | 90 | 1011.9 |
| 20260509212305 | 16 | 0 | 0.0 | 0.0 | 5.64 | 0.00 | 0.00 | 92 | 1011.9 |
| 20260509211802 | 16 | 0 | 0.0 | 0.0 | 5.64 | 0.00 | 0.00 | 97 | 1011.9 |
| 20260509211304 | 24 | 273 | 1.0 | 11.0 | 5.64 | 0.00 | 0.00 | 98 | 1012.0 |
| 20260509210804 | -4 | 280 | 0.0 | 4.0 | 5.64 | 0.00 | 0.00 | 99 | 1011.8 |
| 20260509210302 | -3 | 0 | 0.0 | 0.0 | 5.64 | 0.00 | 0.00 | 98 | 1011.9 |
| 20260509205802 | 19 | 0 | 0.0 | 0.0 | 5.64 | 0.00 | 0.00 | 98 | 1012.2 |
| 20260509205306 | 20 | 0 | 0.0 | 0.0 | 5.64 | 0.00 | 0.00 | 98 | 1012.3 |
| 20260509204802 | 32 | 252 | 11.0 | 20.0 | 5.64 | 0.00 | 0.00 | 98 | 1012.5 |
| 20260509204302 | 55 | 359 | 1.0 | 7.0 | 5.64 | 0.00 | 0.00 | 96 | 1012.6 |
| 20260509203802 | 57 | 0 | 0.0 | 0.0 | 5.64 | 0.00 | 0.00 | 96 | 1012.1 |